Time;durP1;ratioP1;P1;durP2;ratioP2;P2;SDS_P1;SDS_P2;PMS_P1;PMS_P2;Temp;Humidity;BMP_temperature;BMP_pressure;BME280_temperature;BME280_humidity;BME280_pressure;Samples;Min_cycle;Max_cycle;Signal;HPM_P1;HPM_P2
2023/12/25 00:02:02;;;;;;;0.50;0.50;;;7.40;99.90;;;;;;4994755;28;20214;-60
2023/12/25 00:04:28;;;;;;;0.52;0.52;;;7.40;99.90;;;;;;4995175;28;20552;-61
2023/12/25 00:06:53;;;;;;;0.40;0.40;;;7.40;99.90;;;;;;4995458;28;20160;-61
2023/12/25 00:09:19;;;;;;;0.60;0.60;;;7.30;99.90;;;;;;4995450;28;20170;-61
2023/12/25 00:11:45;;;;;;;0.70;0.40;;;7.40;99.90;;;;;;4994522;28;20206;-60
2023/12/25 00:14:12;;;;;;;0.97;0.97;;;7.40;99.90;;;;;;4994936;28;20418;-61
2023/12/25 00:16:37;;;;;;;0.30;0.30;;;7.40;99.90;;;;;;4994862;28;20595;-60
2023/12/25 00:19:03;;;;;;;0.53;0.53;;;7.40;99.90;;;;;;4994762;28;20179;-61
2023/12/25 00:21:29;;;;;;;0.60;0.60;;;7.50;99.90;;;;;;4994453;28;20467;-61
2023/12/25 00:23:55;;;;;;;0.53;0.53;;;7.50;99.90;;;;;;4994692;28;20180;-61
2023/12/25 00:26:21;;;;;;;0.40;0.40;;;7.50;99.90;;;;;;4994539;28;20179;-61
2023/12/25 00:28:47;;;;;;;0.30;0.30;;;7.20;99.90;;;;;;4994612;28;20668;-61
2023/12/25 00:31:12;;;;;;;0.73;0.63;;;7.20;99.90;;;;;;4994460;28;20251;-61
2023/12/25 00:33:38;;;;;;;0.87;0.87;;;7.30;99.90;;;;;;4994607;28;20645;-61
2023/12/25 00:36:04;;;;;;;0.40;0.40;;;7.40;99.90;;;;;;4994366;28;20523;-61
2023/12/25 00:38:30;;;;;;;0.30;0.30;;;7.40;99.90;;;;;;4994334;28;20184;-61
2023/12/25 00:40:55;;;;;;;0.30;0.30;;;7.40;99.90;;;;;;4993379;28;20299;-61
2023/12/25 00:43:21;;;;;;;0.50;0.50;;;7.50;99.90;;;;;;4994324;28;20284;-61
2023/12/25 00:45:46;;;;;;;0.47;0.47;;;7.50;99.90;;;;;;4994485;28;20646;-61
2023/12/25 00:48:12;;;;;;;0.40;0.40;;;7.50;99.90;;;;;;4994583;28;20712;-61
2023/12/25 00:50:38;;;;;;;0.50;0.50;;;7.40;99.90;;;;;;4993860;28;20206;-60
2023/12/25 00:53:03;;;;;;;0.30;0.30;;;7.50;99.90;;;;;;4994194;28;20257;-61
2023/12/25 00:55:29;;;;;;;0.60;0.60;;;7.40;99.90;;;;;;4994059;28;20692;-61
2023/12/25 00:57:54;;;;;;;0.70;0.70;;;7.50;99.90;;;;;;4994063;28;20172;-61
2023/12/25 01:00:20;;;;;;;0.80;0.80;;;7.50;99.90;;;;;;4993736;28;20199;-61
2023/12/25 01:02:46;;;;;;;1.23;1.13;;;7.50;99.90;;;;;;4993936;28;20199;-61
2023/12/25 01:05:11;;;;;;;0.60;0.40;;;7.50;99.90;;;;;;4994060;28;20179;-61
2023/12/25 01:07:37;;;;;;;0.30;0.30;;;7.60;99.90;;;;;;4994018;28;20673;-61
2023/12/25 01:10:03;;;;;;;0.60;0.60;;;7.50;99.90;;;;;;4993464;28;20177;-61
2023/12/25 01:12:29;;;;;;;0.30;0.30;;;7.50;99.90;;;;;;4993814;28;20187;-61
2023/12/25 01:14:55;;;;;;;0.30;0.30;;;7.50;99.90;;;;;;4993790;28;20191;-61
2023/12/25 01:17:21;;;;;;;2.10;0.73;;;7.50;99.90;;;;;;4993717;28;20184;-61
2023/12/25 01:19:46;;;;;;;1.17;1.17;;;7.40;99.90;;;;;;4993511;28;20569;-60
2023/12/25 01:22:12;;;;;;;0.40;0.40;;;7.40;99.90;;;;;;4993434;28;20661;-61
2023/12/25 01:24:38;;;;;;;0.30;0.30;;;7.50;99.90;;;;;;4993519;28;20218;-61
2023/12/25 01:27:03;;;;;;;0.30;0.30;;;7.50;99.90;;;;;;4993737;28;20172;-61
2023/12/25 01:29:29;;;;;;;0.57;0.57;;;7.50;99.90;;;;;;4993542;28;20183;-61
2023/12/25 01:31:55;;;;;;;0.30;0.30;;;7.50;99.90;;;;;;4993346;28;20508;-61
2023/12/25 01:34:20;;;;;;;0.53;0.53;;;7.50;99.90;;;;;;4993492;28;20184;-61
2023/12/25 01:36:46;;;;;;;0.43;0.43;;;7.50;99.90;;;;;;4993412;28;20180;-61
2023/12/25 01:39:14;;;;;;;0.30;0.30;;;7.40;99.90;;;;;;4993708;28;20203;-61
2023/12/25 01:41:40;;;;;;;0.45;0.45;;;7.40;99.90;;;;;;4992792;28;20219;-61
2023/12/25 01:44:06;;;;;;;0.40;0.40;;;7.40;99.90;;;;;;4993313;28;20167;-61
2023/12/25 01:46:32;;;;;;;0.57;0.50;;;7.50;99.90;;;;;;4993130;28;20180;-61
2023/12/25 01:48:58;;;;;;;0.50;0.50;;;7.60;99.90;;;;;;4993158;28;20186;-61
2023/12/25 01:51:24;;;;;;;0.40;0.40;;;7.50;99.90;;;;;;4992264;28;20196;-61
2023/12/25 01:53:51;;;;;;;0.40;0.40;;;7.50;99.90;;;;;;4992942;28;20627;-61
2023/12/25 01:56:17;;;;;;;0.30;0.30;;;7.50;99.90;;;;;;4993036;28;20407;-61
2023/12/25 01:58:42;;;;;;;0.65;0.65;;;7.50;99.90;;;;;;4993016;28;20213;-61
2023/12/25 02:01:08;;;;;;;0.60;0.50;;;7.50;99.90;;;;;;4992511;28;20719;-61
2023/12/25 02:03:34;;;;;;;0.40;0.40;;;7.40;99.90;;;;;;4992947;28;20172;-61
2023/12/25 02:06:00;;;;;;;0.40;0.40;;;7.40;99.90;;;;;;4992924;28;20254;-61
2023/12/25 02:08:27;;;;;;;0.60;0.60;;;7.40;99.90;;;;;;4992815;28;20411;-61
2023/12/25 02:10:53;;;;;;;0.40;0.40;;;7.40;99.90;;;;;;4992431;28;20172;-60
2023/12/25 02:13:18;;;;;;;0.40;0.40;;;7.30;99.90;;;;;;4992777;28;20186;-61
2023/12/25 02:15:44;;;;;;;0.60;0.60;;;7.40;99.90;;;;;;4992715;28;20183;-61
2023/12/25 02:18:11;;;;;;;0.30;0.30;;;7.40;99.90;;;;;;4992722;28;20576;-61
2023/12/25 02:20:37;;;;;;;0.40;0.40;;;7.30;99.90;;;;;;4992173;28;20199;-61
2023/12/25 02:23:06;;;;;;;0.30;0.30;;;7.30;99.90;;;;;;4992818;28;20203;-61
2023/12/25 02:25:33;;;;;;;4.80;0.70;;;7.40;99.90;;;;;;4992545;28;20183;-61
2023/12/25 02:28:03;;;;;;;0.30;0.30;;;7.30;99.90;;;;;;4992474;28;20187;-61
2023/12/25 02:30:29;;;;;;;0.65;0.65;;;7.30;99.90;;;;;;4992083;28;20195;-61
2023/12/25 02:32:54;;;;;;;1.42;0.70;;;7.20;99.90;;;;;;4992390;28;20204;-61
2023/12/25 02:35:20;;;;;;;0.30;0.30;;;7.20;99.90;;;;;;4992372;28;20306;-61
2023/12/25 02:37:46;;;;;;;0.30;0.30;;;7.20;99.90;;;;;;4992603;28;20175;-60
2023/12/25 02:40:12;;;;;;;0.50;0.50;;;7.10;99.90;;;;;;4991910;28;20210;-61
2023/12/25 02:42:37;;;;;;;0.30;0.30;;;7.20;99.90;;;;;;4992350;28;20226;-61
2023/12/25 02:45:03;;;;;;;0.50;0.47;;;7.20;99.80;;;;;;4992365;28;20251;-61
2023/12/25 02:47:29;;;;;;;0.30;0.30;;;7.20;99.90;;;;;;4992389;28;20271;-61
2023/12/25 02:49:55;;;;;;;0.30;0.30;;;7.10;99.70;;;;;;4992021;28;20212;-59
2023/12/25 02:52:20;;;;;;;0.30;0.30;;;7.10;99.70;;;;;;4992301;28;20194;-61
2023/12/25 02:54:46;;;;;;;0.50;0.40;;;7.10;99.90;;;;;;4992285;28;20569;-61
2023/12/25 02:57:11;;;;;;;0.40;0.40;;;7.10;99.40;;;;;;4992293;28;20182;-61
2023/12/25 02:59:37;;;;;;;0.40;0.40;;;7.10;99.20;;;;;;4992129;28;20168;-61
2023/12/25 03:02:03;;;;;;;0.70;0.70;;;7.10;99.20;;;;;;4991974;28;20290;-61
2023/12/25 03:04:29;;;;;;;0.90;0.52;;;7.20;99.60;;;;;;4995343;28;20228;-61
2023/12/25 03:06:57;;;;;;;2.00;0.63;;;7.20;98.90;;;;;;4996107;28;20175;-61
2023/12/25 03:09:22;;;;;;;0.30;0.30;;;7.10;98.30;;;;;;4996316;28;20166;-61
2023/12/25 03:11:48;;;;;;;0.50;0.43;;;7.10;98.60;;;;;;4995908;28;20224;-61
2023/12/25 03:14:14;;;;;;;0.43;0.43;;;7.20;98.60;;;;;;4995985;28;20214;-60
2023/12/25 03:16:39;;;;;;;0.40;0.40;;;7.30;98.10;;;;;;4996025;28;20202;-61
2023/12/25 03:19:05;;;;;;;0.30;0.30;;;7.20;97.30;;;;;;4995860;28;20217;-61
2023/12/25 03:21:30;;;;;;;0.60;0.60;;;7.20;98.10;;;;;;4995717;28;20217;-61
2023/12/25 03:23:56;;;;;;;0.47;0.40;;;7.20;98.60;;;;;;4995894;28;20168;-61
2023/12/25 03:26:22;;;;;;;0.40;0.40;;;7.10;98.10;;;;;;4994554;28;20164;-60
2023/12/25 03:28:47;;;;;;;0.40;0.40;;;7.10;98.10;;;;;;4995771;28;20620;-61
2023/12/25 03:31:13;;;;;;;0.53;0.40;;;7.00;97.90;;;;;;4995422;28;20631;-61
2023/12/25 03:33:39;;;;;;;0.67;0.40;;;7.00;98.00;;;;;;4995833;28;20686;-61
2023/12/25 03:36:07;;;;;;;0.30;0.30;;;6.90;97.70;;;;;;4995622;28;20203;-61
2023/12/25 03:38:32;;;;;;;0.50;0.50;;;6.90;97.90;;;;;;4995557;28;20189;-60
2023/12/25 03:40:58;;;;;;;0.70;0.70;;;6.80;98.20;;;;;;4994903;28;20695;-60
2023/12/25 03:45:52;;;;;;;0.35;0.35;;;6.70;97.50;;;;;;4955480;29;20220;-62
2023/12/25 03:48:18;;;;;;;0.30;0.30;;;6.60;98.10;;;;;;4956662;29;20283;-62
2023/12/25 03:50:43;;;;;;;0.50;0.50;;;6.50;98.50;;;;;;4956396;29;20268;-62
2023/12/25 03:53:09;;;;;;;0.83;0.83;;;6.50;98.30;;;;;;4956529;29;20224;-62
2023/12/25 03:55:37;;;;;;;0.93;0.93;;;6.50;98.20;;;;;;4956506;29;20657;-61
2023/12/25 03:58:03;;;;;;;0.30;0.30;;;6.50;98.20;;;;;;4956566;29;20655;-62
2023/12/25 04:00:29;;;;;;;0.30;0.30;;;6.40;98.70;;;;;;4956308;29;20211;-62
2023/12/25 04:02:56;;;;;;;12.87;0.80;;;6.30;97.60;;;;;;4956467;29;20491;-62
2023/12/25 04:05:23;;;;;;;0.30;0.30;;;6.40;98.00;;;;;;4956424;29;20569;-62
2023/12/25 04:07:49;;;;;;;0.50;0.50;;;6.40;98.10;;;;;;4956268;29;20170;-61
2023/12/25 04:10:16;;;;;;;0.60;0.60;;;6.30;97.50;;;;;;4955835;29;20181;-62
2023/12/25 04:12:41;;;;;;;1.08;1.02;;;6.30;97.80;;;;;;4956231;29;20177;-62
2023/12/25 04:15:07;;;;;;;0.40;0.40;;;6.30;98.10;;;;;;4955604;28;20250;-62
2023/12/25 04:17:33;;;;;;;0.55;0.40;;;6.30;97.70;;;;;;4956240;29;20181;-62
2023/12/25 04:19:59;;;;;;;0.50;0.50;;;6.30;97.00;;;;;;4955755;29;20561;-61
2023/12/25 04:22:24;;;;;;;0.70;0.50;;;6.30;96.80;;;;;;4956096;29;20589;-61
2023/12/25 04:24:50;;;;;;;0.30;0.30;;;6.20;96.60;;;;;;4955841;29;20435;-62
2023/12/25 04:27:16;;;;;;;0.67;0.67;;;6.20;96.70;;;;;;4956166;29;20601;-62
2023/12/25 04:29:41;;;;;;;0.30;0.30;;;6.30;97.40;;;;;;4955795;29;20530;-62
2023/12/25 04:32:07;;;;;;;0.40;0.40;;;6.20;97.00;;;;;;4955749;29;20248;-62
2023/12/25 04:34:32;;;;;;;0.50;0.50;;;6.20;97.50;;;;;;4955794;29;20714;-62
2023/12/25 04:36:58;;;;;;;0.93;0.50;;;6.20;97.50;;;;;;4955802;29;20178;-62
2023/12/25 04:39:24;;;;;;;0.50;0.50;;;6.20;97.20;;;;;;4955552;29;20254;-62
2023/12/25 04:41:49;;;;;;;0.67;0.63;;;6.10;96.80;;;;;;4955575;29;20221;-62
2023/12/25 04:44:15;;;;;;;4.67;0.70;;;6.10;97.20;;;;;;4948979;29;20215;-61
2023/12/25 04:46:41;;;;;;;0.57;0.57;;;6.20;97.30;;;;;;4936532;29;20205;-61
2023/12/25 04:49:06;;;;;;;3.60;1.23;;;6.10;97.00;;;;;;4936362;29;20557;-62
2023/12/25 04:51:32;;;;;;;0.90;0.60;;;6.00;96.80;;;;;;4936128;29;20419;-62
2023/12/25 04:53:58;;;;;;;0.77;0.77;;;6.00;97.20;;;;;;4936148;29;20494;-62
2023/12/25 04:56:24;;;;;;;0.97;0.97;;;5.90;97.50;;;;;;4936407;29;20214;-62
2023/12/25 04:58:50;;;;;;;0.73;0.70;;;5.80;97.80;;;;;;4936311;29;20206;-61
2023/12/25 05:01:16;;;;;;;0.43;0.43;;;5.80;97.80;;;;;;4935972;29;20256;-62
2023/12/25 05:03:41;;;;;;;0.30;0.30;;;5.70;97.80;;;;;;4936116;29;20754;-62
2023/12/25 05:06:07;;;;;;;0.53;0.53;;;5.70;98.00;;;;;;4936113;29;20184;-62
2023/12/25 05:08:33;;;;;;;0.30;0.30;;;5.60;97.90;;;;;;4936024;29;20435;-62
2023/12/25 05:10:58;;;;;;;0.40;0.40;;;5.50;97.80;;;;;;4935683;29;20179;-62
2023/12/25 05:13:24;;;;;;;0.60;0.60;;;5.50;97.80;;;;;;4936090;29;20199;-62
2023/12/25 05:15:50;;;;;;;0.50;0.50;;;5.40;98.10;;;;;;4935993;29;20180;-62
2023/12/25 05:18:15;;;;;;;0.40;0.40;;;5.40;98.20;;;;;;4935933;29;20182;-61
2023/12/25 05:20:41;;;;;;;6.30;0.67;;;5.30;98.30;;;;;;4935523;29;20759;-61
2023/12/25 05:23:06;;;;;;;0.63;0.40;;;5.30;97.40;;;;;;4935688;29;20226;-62
2023/12/25 05:25:32;;;;;;;0.40;0.40;;;5.30;97.90;;;;;;4935756;29;20177;-61
2023/12/25 05:27:58;;;;;;;0.40;0.40;;;5.20;98.50;;;;;;4935129;29;20521;-61
2023/12/25 05:30:23;;;;;;;0.60;0.60;;;5.20;98.50;;;;;;4935423;29;20184;-62
2023/12/25 05:32:49;;;;;;;0.50;0.43;;;5.10;98.60;;;;;;4935603;29;20480;-62
2023/12/25 05:35:15;;;;;;;0.60;0.60;;;5.00;98.50;;;;;;4935593;29;20186;-62
2023/12/25 05:37:40;;;;;;;0.60;0.60;;;5.10;97.70;;;;;;4935454;29;20686;-62
2023/12/25 05:40:06;;;;;;;0.70;0.60;;;5.20;97.80;;;;;;4935147;29;20261;-61
2023/12/25 05:42:32;;;;;;;0.40;0.40;;;5.20;97.90;;;;;;4935638;29;20221;-62
2023/12/25 05:44:58;;;;;;;0.60;0.60;;;5.20;97.40;;;;;;4935178;29;20575;-61
2023/12/25 05:47:24;;;;;;;0.83;0.83;;;5.20;97.50;;;;;;4935387;29;20166;-62
2023/12/25 05:49:49;;;;;;;0.60;0.60;;;5.20;97.40;;;;;;4935201;29;20444;-62
2023/12/25 05:52:15;;;;;;;0.97;0.40;;;5.10;97.20;;;;;;4935039;29;20410;-62
2023/12/25 05:54:42;;;;;;;1.13;0.43;;;5.20;97.50;;;;;;4935332;29;20194;-62
2023/12/25 05:57:08;;;;;;;0.40;0.40;;;5.20;97.50;;;;;;4935299;29;20478;-61
2023/12/25 05:59:35;;;;;;;0.43;0.43;;;5.20;97.60;;;;;;4934972;29;20178;-62
2023/12/25 06:02:01;;;;;;;0.40;0.40;;;5.20;97.50;;;;;;4934949;29;20210;-62
2023/12/25 06:04:27;;;;;;;0.50;0.50;;;5.20;97.30;;;;;;4935109;29;20289;-62
2023/12/25 06:06:53;;;;;;;0.50;0.50;;;5.20;96.90;;;;;;4934982;29;20261;-62
2023/12/25 06:09:20;;;;;;;0.60;0.60;;;5.20;97.20;;;;;;4935186;29;20553;-62
2023/12/25 06:11:46;;;;;;;1.05;1.05;;;5.10;97.20;;;;;;4934654;29;20566;-62
2023/12/25 06:14:12;;;;;;;0.40;0.40;;;5.20;97.40;;;;;;4934895;29;20197;-62
2023/12/25 06:16:37;;;;;;;0.60;0.60;;;5.20;97.50;;;;;;4934902;29;20550;-62
2023/12/25 06:19:03;;;;;;;0.40;0.40;;;5.20;97.30;;;;;;4934782;29;20174;-62
2023/12/25 06:21:28;;;;;;;0.40;0.40;;;5.20;97.30;;;;;;4934350;29;20205;-62
2023/12/25 06:23:54;;;;;;;0.60;0.57;;;5.10;97.30;;;;;;4934723;29;20561;-61
2023/12/25 06:26:20;;;;;;;0.60;0.60;;;5.20;97.10;;;;;;4934887;29;20182;-62
2023/12/25 06:28:46;;;;;;;0.30;0.30;;;5.10;97.00;;;;;;4934746;29;20414;-62
2023/12/25 06:31:11;;;;;;;0.40;0.40;;;5.20;97.00;;;;;;4934459;29;20182;-62
2023/12/25 06:33:37;;;;;;;0.40;0.40;;;5.10;97.00;;;;;;4934670;29;20332;-61
2023/12/25 06:36:03;;;;;;;0.73;0.50;;;5.10;96.50;;;;;;4934482;29;20178;-61
2023/12/25 06:38:29;;;;;;;0.60;0.60;;;5.10;96.40;;;;;;4934332;29;20182;-62
2023/12/25 06:40:55;;;;;;;0.40;0.40;;;5.10;96.40;;;;;;4934194;29;20466;-62
2023/12/25 06:43:20;;;;;;;0.50;0.50;;;5.10;96.70;;;;;;4934818;29;20241;-60
2023/12/25 06:45:46;;;;;;;0.60;0.60;;;5.10;96.60;;;;;;4934527;29;20579;-62
2023/12/25 06:48:11;;;;;;;1.00;0.87;;;5.10;96.70;;;;;;4934575;29;20637;-62
2023/12/25 06:50:40;;;;;;;0.40;0.40;;;5.10;96.40;;;;;;4934056;29;20255;-61
2023/12/25 06:53:07;;;;;;;0.70;0.70;;;5.10;96.40;;;;;;4934426;29;20190;-62
2023/12/25 06:55:33;;;;;;;1.13;1.02;;;5.10;96.60;;;;;;4934394;29;20237;-61
2023/12/25 06:57:59;;;;;;;0.40;0.40;;;5.10;96.40;;;;;;4934461;29;20585;-61
2023/12/25 07:00:24;;;;;;;0.40;0.40;;;5.20;96.50;;;;;;4934066;29;20240;-62
2023/12/25 07:02:53;;;;;;;0.60;0.60;;;5.10;96.30;;;;;;4934428;29;20715;-62
2023/12/25 07:05:18;;;;;;;0.63;0.50;;;5.10;96.50;;;;;;4934364;29;20206;-62
2023/12/25 07:07:44;;;;;;;0.40;0.40;;;5.20;96.70;;;;;;4934452;29;20170;-62
2023/12/25 07:10:10;;;;;;;0.37;0.37;;;5.20;96.50;;;;;;4934099;29;20225;-62
2023/12/25 07:12:35;;;;;;;0.40;0.40;;;5.10;97.10;;;;;;4934358;29;20179;-62
2023/12/25 07:15:01;;;;;;;0.30;0.30;;;5.10;97.40;;;;;;4934337;29;20195;-62
2023/12/25 07:17:27;;;;;;;0.50;0.50;;;4.90;97.20;;;;;;4934292;29;20174;-61
2023/12/25 07:19:52;;;;;;;0.63;0.63;;;4.80;96.80;;;;;;4934075;29;20206;-62
2023/12/25 07:22:18;;;;;;;0.80;0.80;;;4.90;97.00;;;;;;4934144;29;20233;-62
2023/12/25 07:24:44;;;;;;;0.40;0.40;;;5.00;97.30;;;;;;4934153;29;20261;-62
2023/12/25 07:27:10;;;;;;;1.05;0.95;;;5.10;97.50;;;;;;4934195;29;20788;-62
2023/12/25 07:29:36;;;;;;;0.50;0.50;;;5.10;97.40;;;;;;4934105;29;20186;-62
2023/12/25 07:32:02;;;;;;;1.60;0.50;;;5.00;97.30;;;;;;4934040;29;20931;-62
2023/12/25 07:34:28;;;;;;;0.40;0.40;;;5.00;97.60;;;;;;4934024;29;20283;-62
2023/12/25 07:36:54;;;;;;;0.40;0.40;;;5.00;97.80;;;;;;4934039;29;20661;-61
2023/12/25 07:39:19;;;;;;;0.40;0.40;;;5.00;97.60;;;;;;4934017;29;20212;-62
2023/12/25 07:41:48;;;;;;;0.50;0.50;;;5.00;97.50;;;;;;4933745;29;20505;-61
2023/12/25 07:44:14;;;;;;;0.95;0.70;;;5.00;97.50;;;;;;4933933;29;20222;-62
2023/12/25 07:46:39;;;;;;;0.50;0.50;;;5.00;97.40;;;;;;4934081;29;20182;-60
2023/12/25 07:49:05;;;;;;;0.40;0.40;;;5.00;97.30;;;;;;4933964;29;20208;-62
2023/12/25 07:51:30;;;;;;;0.53;0.40;;;5.00;97.30;;;;;;4936656;29;20186;-62
2023/12/25 07:53:56;;;;;;;0.87;0.87;;;5.10;96.90;;;;;;4937522;29;20253;-62
2023/12/25 07:56:21;;;;;;;0.50;0.50;;;5.20;97.00;;;;;;4937385;29;20174;-62
2023/12/25 07:58:47;;;;;;;2.67;2.10;;;5.20;96.90;;;;;;4937336;29;20186;-61
2023/12/25 08:01:13;;;;;;;1.50;0.87;;;5.20;96.20;;;;;;4936980;29;20202;-62
2023/12/25 08:03:39;;;;;;;0.75;0.40;;;5.40;96.40;;;;;;4937068;29;20285;-62
2023/12/25 08:06:05;;;;;;;0.60;0.50;;;5.50;96.50;;;;;;4937257;29;20210;-62
2023/12/25 08:08:31;;;;;;;0.40;0.40;;;5.50;96.10;;;;;;4937136;29;20410;-62
2023/12/25 08:10:57;;;;;;;0.60;0.60;;;5.60;96.20;;;;;;4936820;29;20521;-62
2023/12/25 08:13:22;;;;;;;0.70;0.70;;;5.60;96.20;;;;;;4937038;29;20277;-62
2023/12/25 08:15:48;;;;;;;0.77;0.70;;;5.60;96.00;;;;;;4937120;29;20566;-62
2023/12/25 08:18:14;;;;;;;0.43;0.43;;;5.60;95.80;;;;;;4936937;29;20706;-61
2023/12/25 08:20:39;;;;;;;0.70;0.70;;;6.00;95.90;;;;;;4936630;29;20206;-62
2023/12/25 08:23:05;;;;;;;0.60;0.60;;;6.50;95.40;;;;;;4936854;29;20574;-62
2023/12/25 08:25:31;;;;;;;1.50;1.30;;;6.80;93.70;;;;;;4936958;29;20211;-62
2023/12/25 08:27:56;;;;;;;0.60;0.60;;;7.10;93.20;;;;;;4936788;29;20170;-62
2023/12/25 08:30:22;;;;;;;0.60;0.60;;;7.30;92.50;;;;;;4936497;29;20600;-62
2023/12/25 08:32:48;;;;;;;0.40;0.40;;;7.60;92.60;;;;;;4936479;29;20213;-61
2023/12/25 08:35:14;;;;;;;0.80;0.80;;;7.80;92.00;;;;;;4936714;29;20202;-62
2023/12/25 08:37:39;;;;;;;0.60;0.60;;;7.60;91.30;;;;;;4936807;29;20522;-62
2023/12/25 08:40:06;;;;;;;0.40;0.40;;;7.30;91.70;;;;;;4936264;29;20190;-62
2023/12/25 08:42:32;;;;;;;0.60;0.60;;;7.20;92.60;;;;;;4936870;29;20197;-61
2023/12/25 08:44:57;;;;;;;0.30;0.30;;;7.10;92.70;;;;;;4936378;29;20711;-62
2023/12/25 08:47:24;;;;;;;0.40;0.40;;;7.10;93.00;;;;;;4936434;29;20203;-62
2023/12/25 08:49:50;;;;;;;0.77;0.68;;;7.10;93.40;;;;;;4936384;29;20252;-62
2023/12/25 08:52:17;;;;;;;0.70;0.50;;;7.00;93.20;;;;;;4936210;29;20674;-62
2023/12/25 08:54:43;;;;;;;0.50;0.40;;;6.90;93.50;;;;;;4936340;29;20190;-61
2023/12/25 08:57:08;;;;;;;0.43;0.43;;;6.90;94.00;;;;;;4936363;29;20187;-61
2023/12/25 08:59:34;;;;;;;0.40;0.40;;;6.90;94.00;;;;;;4936550;29;20276;-62
2023/12/25 09:02:00;;;;;;;0.50;0.50;;;7.00;94.30;;;;;;4935765;29;20364;-62
2023/12/25 09:04:26;;;;;;;1.90;0.53;;;7.00;94.30;;;;;;4936328;29;20199;-62
2023/12/25 09:06:51;;;;;;;0.73;0.70;;;7.00;94.20;;;;;;4936041;29;20663;-62
2023/12/25 09:09:17;;;;;;;0.77;0.77;;;6.90;94.40;;;;;;4936198;29;20413;-62
2023/12/25 09:11:43;;;;;;;0.87;0.57;;;7.00;94.70;;;;;;4935710;29;20536;-62
2023/12/25 09:14:09;;;;;;;0.77;0.50;;;7.10;94.60;;;;;;4935882;29;20204;-62
2023/12/25 09:16:35;;;;;;;0.40;0.37;;;7.00;94.50;;;;;;4935870;29;20603;-61
2023/12/25 09:19:01;;;;;;;0.40;0.40;;;7.00;94.60;;;;;;4936091;29;20206;-62
2023/12/25 09:21:26;;;;;;;0.37;0.37;;;7.00;95.10;;;;;;4935495;29;20259;-61
2023/12/25 09:23:52;;;;;;;0.37;0.37;;;6.90;94.90;;;;;;4935787;29;20684;-62
2023/12/25 09:26:20;;;;;;;0.40;0.40;;;6.80;95.30;;;;;;4935783;29;20211;-62
2023/12/25 09:28:47;;;;;;;0.52;0.52;;;6.80;95.40;;;;;;4935623;29;20179;-62
2023/12/25 09:31:13;;;;;;;0.50;0.50;;;6.90;95.50;;;;;;4935391;29;20180;-61
2023/12/25 09:33:39;;;;;;;0.40;0.40;;;6.90;95.60;;;;;;4935574;29;20782;-61
2023/12/25 09:36:06;;;;;;;0.40;0.40;;;6.90;95.60;;;;;;4935658;29;20328;-62
2023/12/25 09:38:32;;;;;;;0.30;0.30;;;6.80;96.20;;;;;;4935549;29;20189;-62
2023/12/25 09:40:58;;;;;;;0.40;0.40;;;6.70;96.90;;;;;;4935205;29;20266;-62
2023/12/25 09:43:24;;;;;;;0.40;0.40;;;6.60;96.80;;;;;;4971637;23;20198;-61
2023/12/25 09:45:50;;;;;;;0.85;0.75;;;6.60;97.20;;;;;;4933810;29;20242;-61
2023/12/25 09:48:19;;;;;;;0.90;0.90;;;6.60;97.30;;;;;;4935558;29;20176;-61
2023/12/25 09:50:45;;;;;;;0.40;0.40;;;6.60;97.80;;;;;;4935001;29;20501;-61
2023/12/25 09:53:10;;;;;;;0.73;0.73;;;6.60;97.60;;;;;;4935225;29;20214;-61
2023/12/25 09:55:37;;;;;;;0.73;0.73;;;6.50;97.90;;;;;;4935237;29;20986;-61
2023/12/25 09:58:10;;;;;;;2.03;1.25;;;6.60;98.20;;;;;;4935179;29;20173;-61
2023/12/25 10:00:36;;;;;;;0.65;0.60;;;6.50;98.50;;;;;;4934945;29;20206;-60
2023/12/25 10:03:03;;;;;;;1.80;0.47;;;6.50;98.90;;;;;;4935102;29;20564;-61
2023/12/25 10:05:29;;;;;;;0.50;0.50;;;6.60;98.90;;;;;;4934946;29;20283;-61
2023/12/25 10:07:55;;;;;;;0.90;0.70;;;6.70;98.60;;;;;;4935059;29;20303;-61
2023/12/25 10:10:30;;;;;;;0.40;0.40;;;6.80;98.30;;;;;;4934741;29;20204;-61
2023/12/25 10:12:59;;;;;;;0.40;0.40;;;6.80;98.10;;;;;;4934435;29;20176;-61
2023/12/25 10:15:25;;;;;;;1.10;0.85;;;6.90;97.70;;;;;;4934997;29;20208;-61
2023/12/25 10:18:04;;;;;;;1.97;1.90;;;6.80;97.60;;;;;;4935027;29;20190;-61
2023/12/25 10:20:30;;;;;;;0.85;0.85;;;6.90;97.70;;;;;;4934412;29;20700;-61
2023/12/25 10:22:57;;;;;;;0.47;0.47;;;6.80;97.60;;;;;;4934842;29;20267;-61
2023/12/25 10:25:28;;;;;;;0.73;0.73;;;7.00;97.70;;;;;;4934550;29;20470;-61
2023/12/25 10:27:54;;;;;;;0.50;0.50;;;7.00;97.20;;;;;;4934702;29;20185;-61
2023/12/25 10:30:26;;;;;;;0.40;0.40;;;7.10;97.30;;;;;;4934543;29;20267;-61
2023/12/25 10:33:13;;;;;;;0.40;0.40;;;7.10;97.10;;;;;;4934659;29;20217;-61
2023/12/25 10:35:39;;;;;;;0.50;0.40;;;7.10;97.00;;;;;;4934525;29;20175;-61
2023/12/25 10:38:05;;;;;;;0.50;0.50;;;7.10;97.00;;;;;;4934579;29;20188;-61
2023/12/25 10:40:32;;;;;;;1.58;0.60;;;7.10;97.20;;;;;;4934227;29;20201;-61
2023/12/25 10:42:58;;;;;;;0.40;0.40;;;7.00;97.40;;;;;;4934596;29;20182;-61
2023/12/25 10:45:26;;;;;;;1.17;1.08;;;6.90;97.60;;;;;;4934414;29;20690;-61
2023/12/25 10:48:00;;;;;;;0.40;0.40;;;6.90;98.10;;;;;;4934612;29;20198;-61
2023/12/25 10:50:28;;;;;;;1.13;1.13;;;6.90;98.10;;;;;;4934139;29;20188;-61
2023/12/25 10:52:57;;;;;;;0.85;0.68;;;6.90;98.20;;;;;;4934848;29;20259;-61
2023/12/25 10:55:28;;;;;;;3.63;1.65;;;6.80;98.40;;;;;;4934597;29;20201;-61
2023/12/25 10:57:55;;;;;;;1.25;0.57;;;6.90;98.70;;;;;;4934490;29;20679;-61
2023/12/25 11:00:22;;;;;;;0.80;0.80;;;7.10;98.20;;;;;;4934082;29;20190;-61
2023/12/25 11:02:53;;;;;;;0.40;0.40;;;7.20;98.00;;;;;;4934365;29;20185;-60
2023/12/25 11:05:20;;;;;;;0.60;0.52;;;7.30;97.60;;;;;;4934308;29;20273;-61
2023/12/25 11:07:46;;;;;;;0.60;0.55;;;7.40;97.50;;;;;;4934562;29;20181;-61
2023/12/25 11:10:13;;;;;;;1.63;0.60;;;7.40;97.30;;;;;;4934124;29;20604;-61
2023/12/25 11:12:39;;;;;;;1.00;0.60;;;7.30;96.10;;;;;;4934414;29;20781;-61
2023/12/25 11:15:05;;;;;;;0.40;0.40;;;7.30;96.10;;;;;;4934248;29;20205;-61
2023/12/25 11:17:32;;;;;;;0.70;0.43;;;7.30;96.50;;;;;;4934171;29;20260;-61
2023/12/25 11:19:58;;;;;;;0.60;0.60;;;7.30;95.70;;;;;;4933969;29;20185;-61
2023/12/25 11:22:28;;;;;;;0.40;0.40;;;7.30;95.70;;;;;;4934350;29;20219;-61
2023/12/25 11:24:55;;;;;;;0.30;0.30;;;7.50;95.30;;;;;;4935004;29;20200;-61
2023/12/25 11:27:22;;;;;;;0.40;0.40;;;7.70;95.20;;;;;;4937894;29;20189;-61
2023/12/25 11:29:49;;;;;;;0.60;0.60;;;7.90;94.90;;;;;;4937732;29;20245;-61
2023/12/25 11:32:17;;;;;;;0.40;0.40;;;8.20;94.50;;;;;;4937587;29;20198;-60
2023/12/25 11:34:48;;;;;;;0.40;0.40;;;8.40;93.80;;;;;;4937766;29;20197;-61
2023/12/25 11:37:20;;;;;;;0.30;0.30;;;8.50;93.70;;;;;;4937716;29;20222;-61
2023/12/25 11:39:56;;;;;;;3.50;0.73;;;8.50;92.90;;;;;;4937522;29;20193;-61
2023/12/25 11:42:22;;;;;;;0.30;0.30;;;8.50;92.90;;;;;;4937524;29;20205;-61
2023/12/25 11:44:48;;;;;;;0.60;0.60;;;8.40;92.50;;;;;;4937519;29;20219;-61
2023/12/25 11:47:26;;;;;;;10.30;0.73;;;8.40;93.20;;;;;;4937682;29;20279;-61
2023/12/25 11:49:53;;;;;;;0.50;0.40;;;8.40;92.90;;;;;;4937525;29;20604;-61
2023/12/25 11:52:56;;;;;;;0.40;0.40;;;8.40;92.70;;;;;;4937428;29;20241;-61
2023/12/25 11:55:24;;;;;;;0.47;0.40;;;8.40;93.00;;;;;;4933980;29;20341;-61
2023/12/25 11:57:50;;;;;;;0.40;0.40;;;8.40;92.80;;;;;;4937502;29;20241;-61
2023/12/25 12:00:26;;;;;;;0.70;0.70;;;8.40;92.30;;;;;;4936996;29;20650;-61
2023/12/25 12:02:52;;;;;;;2.67;0.73;;;8.40;92.40;;;;;;4937389;29;20567;-61
2023/12/25 12:05:18;;;;;;;1.02;0.68;;;8.40;92.00;;;;;;4937083;29;20205;-61
2023/12/25 12:07:44;;;;;;;0.40;0.40;;;8.40;91.90;;;;;;4937217;29;20201;-61
2023/12/25 12:10:11;;;;;;;1.37;0.57;;;8.50;92.80;;;;;;4936826;29;20478;-61
2023/12/25 12:12:37;;;;;;;0.30;0.30;;;8.40;92.50;;;;;;4937208;29;20194;-61
2023/12/25 12:15:04;;;;;;;0.57;0.57;;;8.60;92.60;;;;;;4937052;29;20743;-61
2023/12/25 12:17:30;;;;;;;0.85;0.60;;;8.60;92.20;;;;;;4937346;29;20469;-61
2023/12/25 12:19:56;;;;;;;0.77;0.60;;;8.70;92.20;;;;;;4936732;29;20182;-61
2023/12/25 12:22:23;;;;;;;0.40;0.40;;;8.70;91.60;;;;;;4936750;29;20468;-61
2023/12/25 12:24:49;;;;;;;6.65;2.15;;;8.80;91.60;;;;;;4936723;29;20434;-61
2023/12/25 12:27:19;;;;;;;0.77;0.50;;;8.70;91.30;;;;;;4936981;29;20178;-61
2023/12/25 12:29:51;;;;;;;0.65;0.65;;;8.70;91.90;;;;;;4936797;29;20198;-61
2023/12/25 12:32:17;;;;;;;0.50;0.50;;;8.70;91.90;;;;;;4936570;29;20275;-61
2023/12/25 12:34:43;;;;;;;0.37;0.37;;;8.70;92.10;;;;;;4936667;29;20292;-61
2023/12/25 12:37:09;;;;;;;9.10;0.82;;;8.60;91.90;;;;;;4936168;29;20170;-60
2023/12/25 12:39:36;;;;;;;0.50;0.50;;;8.60;91.50;;;;;;4936707;29;20196;-60
2023/12/25 12:42:10;;;;;;;2.60;1.05;;;8.60;91.20;;;;;;4936279;29;20205;-61
2023/12/25 12:44:36;;;;;;;0.40;0.40;;;8.60;91.20;;;;;;4936340;29;20301;-61
2023/12/25 12:47:01;;;;;;;1.70;0.80;;;8.70;91.10;;;;;;4936365;29;20252;-61
2023/12/25 12:49:27;;;;;;;0.50;0.50;;;8.70;91.40;;;;;;4936448;29;20178;-61
2023/12/25 12:51:54;;;;;;;2.00;0.93;;;8.70;91.50;;;;;;4936403;29;20477;-61
2023/12/25 12:54:20;;;;;;;0.40;0.40;;;8.80;91.60;;;;;;4936500;29;20202;-61
2023/12/25 12:56:46;;;;;;;0.60;0.50;;;8.90;91.50;;;;;;4936337;29;20645;-61